Time;durP1;ratioP1;P1;durP2;ratioP2;P2;SDS_P1;SDS_P2;PMS_P1;PMS_P2;Temp;Humidity;BMP_temperature;BMP_pressure;BME280_temperature;BME280_humidity;BME280_pressure;Samples;Min_cycle;Max_cycle;Signal;HPM_P1;HPM_P2
2022/11/18 05:01:36;;;;;;;53.85;23.60;;;;;;;6.78;100.00;98868.53;6050758;28;20266;-86
2022/11/18 05:04:39;;;;;;;57.28;23.45;;;;;;;6.80;100.00;98877.19;5237678;34;34187;-87
2022/11/18 05:07:42;;;;;;;51.53;22.77;;;;;;;6.75;100.00;98895.66;5237751;34;34117;-86
2022/11/18 05:10:45;;;;;;;57.83;23.50;;;;;;;6.88;100.00;98884.28;5233001;34;34649;-86
2022/11/18 05:13:49;;;;;;;56.47;22.10;;;;;;;7.08;100.00;98884.44;5230211;34;34593;-86
2022/11/18 05:16:53;;;;;;;55.65;23.38;;;;;;;6.89;100.00;98876.03;5224793;34;33670;-85
2022/11/18 05:19:55;;;;;;;52.78;24.00;;;;;;;6.91;100.00;98867.84;5233558;34;33965;-86
2022/11/18 05:22:58;;;;;;;54.97;21.23;;;;;;;6.88;100.00;98852.19;5233657;34;34610;-85
2022/11/18 05:26:06;;;;;;;54.10;21.45;;;;;;;6.91;100.00;98849.94;5233388;34;33752;-86
2022/11/18 05:29:09;;;;;;;45.88;19.35;;;;;;;6.95;100.00;98858.41;5226103;34;34013;-86
2022/11/18 05:32:12;;;;;;;47.05;20.50;;;;;;;7.02;100.00;98859.31;5227530;34;35181;-85
2022/11/18 05:35:15;;;;;;;55.30;20.33;;;;;;;6.90;100.00;98858.97;5247541;34;35394;-85
2022/11/18 05:38:17;;;;;;;50.47;19.08;;;;;;;7.02;100.00;98860.13;5237791;34;33676;-85
2022/11/18 05:44:41;;;;;;;38.58;17.83;;;;;;;7.11;100.00;98846.59;5235125;34;34496;-86
2022/11/18 05:47:59;;;;;;;48.20;20.08;;;;;;;7.04;100.00;98865.28;5226561;34;34290;-86
2022/11/18 05:51:02;;;;;;;52.42;19.85;;;;;;;7.04;100.00;98844.69;5213696;34;32285;-85
2022/11/18 05:54:08;;;;;;;48.45;20.50;;;;;;;7.04;100.00;98831.31;5216600;34;33206;-85
2022/11/18 05:57:11;;;;;;;48.75;21.00;;;;;;;6.98;100.00;98858.00;5219901;34;33910;-86
2022/11/18 06:00:14;;;;;;;49.40;19.65;;;;;;;7.00;100.00;98861.34;5219164;34;34595;-85
2022/11/18 06:03:23;;;;;;;41.15;18.60;;;;;;;6.98;100.00;98858.84;5224050;34;34996;-86
2022/11/18 06:06:32;;;;;;;48.72;18.75;;;;;;;7.00;100.00;98847.97;5224419;34;32904;-90
2022/11/18 06:09:39;;;;;;;41.67;17.42;;;;;;;7.06;100.00;98849.84;5236319;34;34578;-90
2022/11/18 06:12:45;;;;;;;41.35;17.77;;;;;;;6.99;100.00;98848.97;5233437;34;34031;-87
2022/11/18 06:15:49;;;;;;;38.60;16.77;;;;;;;7.00;100.00;98861.34;5224467;34;33981;-87
2022/11/18 06:18:52;;;;;;;43.97;18.10;;;;;;;6.94;100.00;98868.28;5226399;34;34742;-87
2022/11/18 06:21:55;;;;;;;49.92;19.30;;;;;;;7.01;100.00;98862.97;5227009;34;34122;-87
2022/11/18 06:24:59;;;;;;;45.45;17.85;;;;;;;6.97;100.00;98864.41;5224608;34;34385;-86
2022/11/18 06:28:02;;;;;;;46.37;19.08;;;;;;;6.97;100.00;98864.41;5212510;34;34196;-87
2022/11/18 06:31:05;;;;;;;48.00;18.62;;;;;;;6.89;100.00;98857.31;5221074;34;33960;-87
2022/11/18 06:34:08;;;;;;;45.92;19.62;;;;;;;6.86;100.00;98860.38;5220801;34;34648;-87
2022/11/18 06:37:21;;;;;;;45.85;18.40;;;;;;;6.88;100.00;98861.03;5221325;34;33768;-87
2022/11/18 06:40:24;;;;;;;49.33;18.27;;;;;;;6.88;100.00;98853.00;5220095;34;34344;-86
2022/11/18 06:43:42;;;;;;;42.72;19.05;;;;;;;6.95;100.00;98855.72;5207590;34;32769;-86
2022/11/18 06:46:54;;;;;;;42.67;17.40;;;;;;;6.92;100.00;98848.91;5220479;34;35253;-87
2022/11/18 06:49:56;;;;;;;44.30;18.00;;;;;;;6.87;100.00;98851.31;5219693;34;35344;-86
2022/11/18 06:53:00;;;;;;;43.20;17.40;;;;;;;6.94;100.00;98856.75;5226768;33;34801;-86
2022/11/18 06:56:03;;;;;;;42.20;17.12;;;;;;;6.94;100.00;98856.75;5223293;34;34629;-86
2022/11/18 06:59:06;;;;;;;42.50;17.40;;;;;;;6.90;100.00;98855.47;5213483;34;298410;-86
2022/11/18 07:02:09;;;;;;;41.20;16.52;;;;;;;6.91;100.00;98854.47;5221148;34;34057;-87
2022/11/18 07:05:15;;;;;;;48.92;16.25;;;;;;;6.89;100.00;98867.19;5207657;34;32177;-87
2022/11/18 07:08:18;;;;;;;42.50;16.85;;;;;;;6.80;100.00;98861.12;5207830;34;33221;-86
2022/11/18 07:11:26;;;;;;;40.55;17.33;;;;;;;6.77;100.00;98856.19;5217049;34;33331;-86
2022/11/18 07:14:29;;;;;;;38.30;15.98;;;;;;;6.88;100.00;98858.34;5214385;34;32567;-86
2022/11/18 07:17:33;;;;;;;37.90;16.67;;;;;;;6.94;100.00;98857.56;5227131;34;33957;-87
2022/11/18 07:20:35;;;;;;;38.20;17.60;;;;;;;6.92;100.00;98853.44;5236735;34;34183;-87
2022/11/18 07:23:38;;;;;;;50.10;18.05;;;;;;;6.97;100.00;98867.91;5214830;34;32699;-87
2022/11/18 07:26:41;;;;;;;39.45;17.00;;;;;;;6.98;100.00;98856.16;5213831;34;31978;-86
2022/11/18 07:29:44;;;;;;;41.53;18.20;;;;;;;7.06;100.00;98849.03;5216413;34;32790;-87
2022/11/18 07:32:47;;;;;;;40.80;18.40;;;;;;;7.11;100.00;98843.91;5231997;34;32423;-87
2022/11/18 07:35:50;;;;;;;36.28;15.98;;;;;;;7.14;100.00;98847.06;5224369;34;32995;-87
2022/11/18 07:38:53;;;;;;;38.90;17.00;;;;;;;7.20;100.00;98840.09;5219304;34;33184;-87
2022/11/18 07:41:56;;;;;;;37.85;16.02;;;;;;;7.19;100.00;98833.91;5221160;34;33556;-87
2022/11/18 07:44:58;;;;;;;37.30;16.70;;;;;;;7.17;100.00;98833.28;5220974;34;32532;-87
2022/11/18 07:48:01;;;;;;;33.72;16.02;;;;;;;7.24;100.00;98836.00;5221927;33;34375;-87
2022/11/18 07:51:04;;;;;;;34.15;15.27;;;;;;;7.26;100.00;98817.91;5231520;34;34525;-89
2022/11/18 07:54:12;;;;;;;34.15;16.27;;;;;;;7.38;100.00;98813.66;5221613;34;34056;-90
2022/11/18 07:57:15;;;;;;;31.05;15.65;;;;;;;7.34;100.00;98803.53;5210504;34;34012;-91
2022/11/18 08:00:18;;;;;;;29.73;14.52;;;;;;;7.47;100.00;98799.09;5220065;34;34673;-87
2022/11/18 08:03:28;;;;;;;37.28;15.50;;;;;;;7.49;100.00;98794.38;5202620;34;34050;-87
2022/11/18 08:06:33;;;;;;;31.90;15.82;;;;;;;7.50;100.00;98787.16;5231100;33;32342;-87
2022/11/18 08:09:36;;;;;;;30.42;15.23;;;;;;;7.51;100.00;98783.47;5228514;33;34392;-87
2022/11/18 08:12:38;;;;;;;32.45;15.25;;;;;;;7.71;100.00;98794.28;5237817;33;34571;-87
2022/11/18 08:15:42;;;;;;;28.40;15.50;;;;;;;7.69;100.00;98815.06;5239900;34;34877;-87
2022/11/18 08:18:45;;;;;;;28.83;15.07;;;;;;;7.59;100.00;98831.50;5238804;34;33616;-87
2022/11/18 08:21:48;;;;;;;27.40;14.57;;;;;;;7.67;100.00;98820.66;5239440;34;33846;-87
2022/11/18 08:24:51;;;;;;;28.17;14.40;;;;;;;7.65;100.00;98817.31;5228339;34;34035;-87
2022/11/18 08:27:54;;;;;;;27.15;13.35;;;;;;;7.61;100.00;98823.28;5237011;33;31295;-87
2022/11/18 08:30:57;;;;;;;28.30;14.43;;;;;;;7.70;100.00;98822.09;5238175;34;33598;-86
2022/11/18 08:34:05;;;;;;;28.15;14.63;;;;;;;7.65;100.00;98817.31;5207863;34;32797;-87
2022/11/18 08:37:08;;;;;;;31.10;14.27;;;;;;;7.65;100.00;98811.16;5222278;34;34584;-87
2022/11/18 08:40:11;;;;;;;31.00;13.70;;;;;;;7.69;100.00;98807.03;5220230;34;33112;-87
2022/11/18 08:43:14;;;;;;;31.70;14.80;;;;;;;7.49;100.00;98805.09;5223914;34;33724;-87
2022/11/18 08:46:16;;;;;;;30.08;15.48;;;;;;;7.40;100.00;98805.41;5252489;33;34223;-86
2022/11/18 08:49:19;;;;;;;25.27;13.38;;;;;;;7.50;100.00;98793.34;5255685;33;33702;-86
2022/11/18 08:52:22;;;;;;;32.30;14.70;;;;;;;7.64;100.00;98794.25;5255153;33;33956;-87
2022/11/18 08:55:25;;;;;;;31.52;14.52;;;;;;;7.54;100.00;98792.94;5242270;33;34212;-87
2022/11/18 08:58:30;;;;;;;27.77;14.10;;;;;;;7.57;100.00;98787.19;5217747;34;33488;-86
2022/11/18 09:01:36;;;;;;;28.92;14.32;;;;;;;7.57;100.00;98779.16;5240008;33;33705;-87
2022/11/18 09:04:39;;;;;;;36.90;14.30;;;;;;;7.64;100.00;98775.50;5228993;34;34211;-87
2022/11/18 09:07:41;;;;;;;31.58;14.07;;;;;;;7.57;100.00;98779.97;5238005;34;33558;-87
2022/11/18 09:10:44;;;;;;;33.30;14.70;;;;;;;7.57;100.00;98771.12;5244227;34;33490;-86
2022/11/18 09:13:52;;;;;;;27.87;13.27;;;;;;;7.48;100.00;98775.81;5240154;34;35042;-86
2022/11/18 09:17:14;;;;;;;30.75;13.25;;;;;;;7.59;100.00;98779.81;5237307;34;34782;-86
2022/11/18 09:20:18;;;;;;;28.73;13.13;;;;;;;7.49;100.00;98789.03;5238281;34;35413;-87
2022/11/18 09:23:21;;;;;;;31.58;13.38;;;;;;;7.47;100.00;98776.84;5237521;34;33618;-86
2022/11/18 09:26:24;;;;;;;33.50;14.87;;;;;;;7.33;100.00;98773.25;5237828;34;33919;-86
2022/11/18 09:29:27;;;;;;;30.12;14.20;;;;;;;7.23;100.00;98773.63;5224806;34;33740;-86
2022/11/18 09:32:32;;;;;;;29.30;13.68;;;;;;;7.26;100.00;98770.56;5225335;34;32845;-86
2022/11/18 09:35:34;;;;;;;28.92;14.40;;;;;;;7.35;100.00;98765.87;5237107;34;34793;-86
2022/11/18 09:38:37;;;;;;;28.55;13.20;;;;;;;7.30;100.00;98768.31;5237066;34;34909;-86
2022/11/18 09:41:44;;;;;;;29.08;13.48;;;;;;;7.29;100.00;98765.84;5222056;33;32616;-89
2022/11/18 09:45:04;;;;;;;28.65;14.23;;;;;;;7.18;100.00;98761.84;5245866;33;34082;-90
2022/11/18 09:48:18;;;;;;;28.92;13.70;;;;;;;7.18;100.00;98759.16;5254749;33;34352;-87
2022/11/18 09:51:26;;;;;;;29.63;12.80;;;;;;;7.04;100.00;98755.56;5242147;33;32241;-86
2022/11/18 09:54:33;;;;;;;27.42;12.57;;;;;;;6.94;100.00;98749.75;5238181;33;34639;-86
2022/11/18 09:57:42;;;;;;;30.12;13.30;;;;;;;6.94;100.00;98744.37;5237236;34;33662;-87
2022/11/18 10:00:45;;;;;;;27.30;13.50;;;;;;;6.92;100.00;98747.25;5234956;34;34797;-86
2022/11/18 10:03:49;;;;;;;27.20;13.77;;;;;;;7.02;100.00;98744.25;5227872;34;32114;-86
2022/11/18 10:06:51;;;;;;;26.35;13.23;;;;;;;7.03;100.00;98738.69;5242560;34;34197;-86
2022/11/18 10:09:56;;;;;;;31.50;12.80;;;;;;;7.11;100.00;98718.13;5237005;34;33994;-86
2022/11/18 10:13:11;;;;;;;27.05;12.65;;;;;;;6.98;100.00;98714.34;5219996;34;34790;-87
2022/11/18 10:16:21;;;;;;;30.88;13.20;;;;;;;7.05;100.00;98709.06;5220492;34;34079;-86
2022/11/18 10:19:38;;;;;;;28.33;12.82;;;;;;;7.01;100.00;98711.28;5234710;33;34145;-87
2022/11/18 10:22:51;;;;;;;24.23;12.73;;;;;;;6.95;100.00;98703.22;5225008;34;33821;-86
2022/11/18 10:25:54;;;;;;;27.08;12.68;;;;;;;7.05;100.00;98695.69;5217406;34;32430;-86
2022/11/18 10:29:02;;;;;;;25.83;12.43;;;;;;;7.13;100.00;98702.72;5235645;33;34655;-86
2022/11/18 10:32:09;;;;;;;26.92;12.80;;;;;;;7.21;100.00;98691.88;5231788;34;32568;-86
2022/11/18 10:35:33;;;;;;;25.52;12.75;;;;;;;7.18;100.00;98690.41;5221318;34;33909;-86
2022/11/18 10:38:36;;;;;;;28.65;13.30;;;;;;;7.13;100.00;98689.34;5220646;34;35101;-91
2022/11/18 10:41:44;;;;;;;28.02;13.62;;;;;;;7.16;100.00;98692.44;5234722;33;33804;-90
2022/11/18 10:44:46;;;;;;;27.62;14.25;;;;;;;7.25;100.00;98691.28;5237083;34;33917;-86
2022/11/18 10:48:08;;;;;;;33.15;13.70;;;;;;;7.14;100.00;98686.47;5237680;34;34013;-86
2022/11/18 10:51:22;;;;;;;30.30;13.82;;;;;;;7.15;100.00;98684.63;5225845;34;34785;-86
2022/11/18 10:54:25;;;;;;;28.83;14.15;;;;;;;7.18;100.00;98681.56;5245087;34;33438;-86
2022/11/18 10:57:33;;;;;;;23.02;11.95;;;;;;;7.11;100.00;98680.69;5225783;34;32370;-86
2022/11/18 11:00:42;;;;;;;25.48;12.10;;;;;;;7.20;100.00;98677.66;5230516;34;34358;-86
2022/11/18 11:04:01;;;;;;;22.87;11.68;;;;;;;7.21;100.00;98681.97;5206572;34;33573;-86
2022/11/18 11:07:16;;;;;;;25.88;13.02;;;;;;;7.24;100.00;98680.75;5220226;34;34077;-86
2022/11/18 11:10:22;;;;;;;19.20;11.32;;;;;;;7.23;100.00;98681.78;5220645;34;31981;-87
2022/11/18 11:13:28;;;;;;;18.05;9.98;;;;;;;7.10;100.00;98687.06;5241034;34;35284;-86
2022/11/18 11:16:38;;;;;;;20.60;10.32;;;;;;;7.04;100.00;98678.78;5239784;34;32617;-86
2022/11/18 11:19:52;;;;;;;18.25;10.18;;;;;;;7.00;100.00;98682.06;5243278;34;35347;-86
2022/11/18 11:22:55;;;;;;;22.05;10.50;;;;;;;7.03;100.00;98684.34;5225153;34;32757;-86
2022/11/18 11:26:12;;;;;;;18.08;9.15;;;;;;;7.03;100.00;98687.03;5235477;34;34083;-86
2022/11/18 11:29:46;;;;;;;18.92;9.15;;;;;;;6.82;100.00;98686.06;5232202;34;33934;-86
2022/11/18 11:33:16;;;;;;;15.38;8.95;;;;;;;6.69;100.00;98688.63;5236148;34;33728;-86
2022/11/18 11:36:35;;;;;;;17.33;9.10;;;;;;;6.67;100.00;98684.50;5230414;34;32152;-86
2022/11/18 11:40:15;;;;;;;22.27;11.18;;;;;;;6.69;100.00;98691.31;5235827;34;34674;-85
2022/11/18 11:43:44;;;;;;;23.67;10.23;;;;;;;6.70;100.00;98698.34;5223804;34;32280;-85
2022/11/18 11:50:52;;;;;;;22.77;10.55;;;;;;;6.70;100.00;98702.84;5235513;34;34023;-85
2022/11/18 11:54:28;;;;;;;23.12;10.65;;;;;;;6.73;100.00;98691.78;5222859;34;32211;-85
2022/11/18 11:57:46;;;;;;;23.00;10.00;;;;;;;6.69;100.00;98688.63;5225138;34;34099;-85
2022/11/18 12:00:58;;;;;;;20.60;9.15;;;;;;;6.66;100.00;98701.56;5233902;34;32508;-85
2022/11/18 12:04:20;;;;;;;26.17;10.52;;;;;;;6.59;100.00;98693.50;5246629;33;34330;-85
2022/11/18 12:07:44;;;;;;;20.42;8.45;;;;;;;6.50;100.00;98690.16;5251221;33;34296;-85
2022/11/18 12:11:06;;;;;;;20.48;8.43;;;;;;;6.44;100.00;98685.56;5251048;34;35193;-85
2022/11/18 12:14:35;;;;;;;19.20;8.68;;;;;;;6.43;100.00;98688.44;5238929;34;33877;-88
2022/11/18 12:17:53;;;;;;;19.42;8.90;;;;;;;6.41;100.00;98685.16;5240391;34;32351;-84
2022/11/18 12:20:55;;;;;;;19.52;9.07;;;;;;;6.51;100.00;98675.75;5249002;34;34069;-84
2022/11/18 12:24:21;;;;;;;22.45;9.52;;;;;;;6.41;100.00;98664.59;5244601;34;33832;-84
2022/11/18 12:27:26;;;;;;;22.42;9.70;;;;;;;6.37;100.00;98668.63;5232818;34;32462;-84
2022/11/18 12:30:29;;;;;;;17.20;8.50;;;;;;;6.39;100.00;98669.28;5227084;34;32835;-84
2022/11/18 12:33:31;;;;;;;18.98;10.32;;;;;;;6.33;100.00;98668.22;5213775;34;32055;-84
2022/11/18 12:36:38;;;;;;;21.52;9.98;;;;;;;6.37;100.00;98657.94;5227681;34;33481;-84
2022/11/18 12:39:40;;;;;;;15.75;9.70;;;;;;;6.39;100.00;98644.41;5219757;34;33940;-84
2022/11/18 12:46:06;;;;;;;16.17;9.13;;;;;;;6.32;100.00;98644.37;5233489;34;33160;-84
2022/11/18 12:49:21;;;;;;;17.75;9.05;;;;;;;6.33;100.00;98651.34;5234834;33;33609;-84
2022/11/18 12:52:30;;;;;;;23.52;9.85;;;;;;;6.31;100.00;98650.72;5224222;34;33543;-84
2022/11/18 12:55:37;;;;;;;16.53;9.07;;;;;;;6.38;100.00;98643.59;5237275;34;34055;-84
2022/11/18 12:58:53;;;;;;;22.05;8.85;;;;;;;6.40;100.00;98646.88;5224406;34;32452;-84
2022/11/18 13:02:09;;;;;;;15.25;7.95;;;;;;;6.40;100.00;98652.22;5224755;33;33760;-85
2022/11/18 13:05:20;;;;;;;15.45;7.85;;;;;;;6.42;100.00;98654.72;5224736;34;33203;-85
2022/11/18 13:08:23;;;;;;;14.40;6.50;;;;;;;6.29;100.00;98647.41;5236621;34;33971;-84
2022/11/18 13:11:43;;;;;;;14.73;7.70;;;;;;;6.32;100.00;98655.06;5224255;34;32191;-84
2022/11/18 13:18:20;;;;;;;12.80;7.30;;;;;;;6.30;100.00;98668.59;5225452;34;33486;-84
2022/11/18 13:24:51;;;;;;;13.15;6.85;;;;;;;6.30;100.00;98678.47;5237146;34;33888;-85
2022/11/18 13:28:10;;;;;;;12.65;7.82;;;;;;;6.21;100.00;98676.94;5236282;34;34427;-84
2022/11/18 13:31:31;;;;;;;13.52;8.10;;;;;;;6.19;100.00;98695.81;5224237;34;32266;-84
2022/11/18 13:34:46;;;;;;;11.23;6.70;;;;;;;6.25;100.00;98694.25;5234115;33;34591;-84
2022/11/18 13:37:54;;;;;;;12.98;7.05;;;;;;;6.18;100.00;98696.84;5223738;34;32158;-88
2022/11/18 13:41:03;;;;;;;13.52;7.50;;;;;;;6.20;100.00;98697.50;5234375;33;34144;-89
2022/11/18 13:44:23;;;;;;;13.85;7.45;;;;;;;6.20;100.00;98705.53;5223823;34;34122;-84
2022/11/18 13:48:07;;;;;;;12.25;7.25;;;;;;;6.15;100.00;98707.09;5228121;33;34281;-85
2022/11/18 13:51:10;;;;;;;15.27;7.85;;;;;;;6.17;100.00;98700.53;5185750;34;33599;-84
2022/11/18 13:54:22;;;;;;;16.30;8.40;;;;;;;6.13;100.00;98712.63;5223858;34;32950;-84
2022/11/18 13:57:27;;;;;;;15.43;8.38;;;;;;;6.10;100.00;98705.00;5237012;34;33605;-85
2022/11/18 14:00:33;;;;;;;20.88;9.07;;;;;;;6.06;100.00;98707.22;5236620;34;34946;-84
2022/11/18 14:03:50;;;;;;;15.07;8.60;;;;;;;6.02;100.00;98707.78;5223044;33;32220;-84
2022/11/18 14:06:52;;;;;;;18.62;9.70;;;;;;;6.06;100.00;98699.19;5234678;33;34762;-84
2022/11/18 14:10:02;;;;;;;16.90;8.82;;;;;;;6.09;100.00;98692.66;5224805;34;32060;-84
2022/11/18 14:13:25;;;;;;;18.98;9.57;;;;;;;6.13;100.00;98691.25;5237975;34;34132;-84
2022/11/18 14:16:34;;;;;;;21.15;10.48;;;;;;;6.12;100.00;98692.28;5242631;34;34351;-84
2022/11/18 14:19:38;;;;;;;18.73;10.25;;;;;;;6.13;100.00;98696.59;5242035;34;34919;-84
2022/11/18 14:22:42;;;;;;;17.62;9.15;;;;;;;6.18;100.00;98694.19;5250149;34;35298;-87
2022/11/18 14:25:45;;;;;;;23.10;10.43;;;;;;;6.16;100.00;98695.38;5247899;34;35391;-88
2022/11/18 14:28:59;;;;;;;20.85;10.02;;;;;;;6.12;100.00;98694.94;5241665;34;34312;-89
2022/11/18 14:32:14;;;;;;;22.95;10.10;;;;;;;6.11;100.00;98696.78;5224109;34;32269;-85
2022/11/18 14:35:17;;;;;;;21.40;10.15;;;;;;;6.16;100.00;98698.88;5235787;33;34509;-84
2022/11/18 14:38:34;;;;;;;20.75;10.90;;;;;;;6.26;100.00;98701.22;5224355;34;32547;-85
2022/11/18 14:41:55;;;;;;;19.92;10.73;;;;;;;6.25;100.00;98707.59;5224532;34;32481;-84
2022/11/18 14:44:57;;;;;;;20.65;11.55;;;;;;;6.23;100.00;98702.47;5223877;34;33283;-85
2022/11/18 14:48:00;;;;;;;22.55;11.65;;;;;;;6.21;100.00;98706.34;5237255;34;34472;-85
2022/11/18 14:51:03;;;;;;;20.83;11.52;;;;;;;6.24;100.00;98697.94;5236955;34;34158;-84
2022/11/18 14:54:10;;;;;;;22.83;11.55;;;;;;;6.33;100.00;98702.12;5236893;34;34394;-85
2022/11/18 14:57:17;;;;;;;21.87;11.30;;;;;;;6.45;100.00;98707.78;5237618;34;33536;-84
2022/11/18 15:00:20;;;;;;;23.15;11.73;;;;;;;6.48;100.00;98702.88;5224062;34;32255;-84
2022/11/18 15:03:23;;;;;;;24.33;12.65;;;;;;;6.41;100.00;98696.66;5236437;34;34129;-85
2022/11/18 15:06:27;;;;;;;22.20;11.25;;;;;;;6.47;100.00;98689.72;5235936;34;33794;-84
2022/11/18 15:09:30;;;;;;;23.55;12.98;;;;;;;6.44;100.00;98696.28;5236577;34;35279;-84
2022/11/18 15:12:32;;;;;;;23.08;12.45;;;;;;;6.45;100.00;98691.75;5237457;34;34645;-84
2022/11/18 15:15:35;;;;;;;24.23;12.10;;;;;;;6.48;100.00;98678.81;5238227;34;35057;-84
2022/11/18 15:18:38;;;;;;;21.48;10.95;;;;;;;6.47;100.00;98687.88;5224592;34;32272;-84
2022/11/18 15:21:42;;;;;;;21.35;11.23;;;;;;;6.42;100.00;98687.59;5228345;34;32580;-84
2022/11/18 15:24:45;;;;;;;20.67;11.15;;;;;;;6.35;100.00;98690.22;5234435;34;32993;-84
2022/11/18 15:27:47;;;;;;;18.95;10.73;;;;;;;6.36;100.00;98693.72;5236546;34;35110;-84
2022/11/18 15:30:50;;;;;;;20.27;10.70;;;;;;;6.36;100.00;98689.19;5238091;34;33949;-84
2022/11/18 15:33:53;;;;;;;21.45;11.18;;;;;;;6.40;100.00;98700.31;5238681;34;34712;-84
2022/11/18 15:36:55;;;;;;;20.50;11.25;;;;;;;6.33;100.00;98694.94;5238863;34;33893;-84
2022/11/18 15:39:58;;;;;;;20.27;11.35;;;;;;;6.34;100.00;98693.09;5238995;34;35033;-84
2022/11/18 15:43:01;;;;;;;24.55;12.82;;;;;;;6.35;100.00;98695.56;5238240;34;34785;-84
2022/11/18 15:46:03;;;;;;;25.80;12.93;;;;;;;6.39;100.00;98703.22;5225107;34;32556;-84
2022/11/18 15:49:12;;;;;;;24.23;11.90;;;;;;;6.39;100.00;98698.69;5237642;34;33982;-84
2022/11/18 15:52:15;;;;;;;24.30;12.10;;;;;;;6.36;100.00;98707.91;5225031;34;33862;-84
2022/11/18 15:55:18;;;;;;;25.37;12.30;;;;;;;6.37;100.00;98706.06;5225043;34;32579;-84
2022/11/18 15:58:24;;;;;;;25.00;11.68;;;;;;;6.45;100.00;98697.91;5237650;34;35411;-85
